Wallingford, Connecticut
Current Conditions -  °F | °C
As of 7:53 AM on Sunday 23 Nov 2014 (Local Time) from KMMK Reporting Station
Overcast Overcast  
Wind Chill: 38°   Ceiling: 10000
Heat Index: 42°   Visibility: 10mi
Dew Point: 22°   Wind: 6mph
Humidity: 45%   Direction: 180°S
Pressure: 30.18"   Gusts: NA
Location:  41.46°N, 72.82°W
Report Text: KMMK 231253Z AUTO 18005KT 10SM SCT080 OVC100 06/M06 A3018 RMK AO2 SLP221 T00561056 TSNO
Loading
Personal Weather Stations






























Interactive Weather Map New forecast layout! Learn more

10-Day Weather Forecast

Advertisements
Track Severe Weather on mobile